Washington, District of Columbia
Traffic Map
Current Weather Conditions
Washington, District of Columbia
Few Clouds
Few Clouds
14°
Feels Like: 14°
Wind Chill: 14° Ceiling: Unl
Heat Index: 14° Visibility: 10mi
Dew Point: Wind: 3mph
Humidity: 67% Direction: 210° (SSW)
Pressure: 30.39in Gusts: 0mph
Raw Report DataKDCA 240852Z 21003KT 10SM FEW080 14/08 A3039 RMK AO2 SLP288 T01440083 55000 $
Traffic Incident Summary
Active as of:
Severity:
Category:
InformationThere was an issue retrieving the traffic information for this location. Please try a different location or try again shortly.
Advertisements
Track Severe Weather on mobile